Allenton, Wisconsin
Current Conditions -  °F | °C
As of 12:15 AM on Saturday 01 Nov 2014 (Local Time) from KETB Reporting Station
Overcast Overcast  
Wind Chill: 23°   Ceiling: 3700
Heat Index: 32°   Visibility: 10mi
Dew Point: 19°   Wind: 13mph
Humidity: 60%   Direction: 340°NNW
Pressure: 30.4"   Gusts: 21mph
Location:  43.42°N, 88.34°W
Report Text: KETB 010515Z AUTO 34011G18KT 10SM OVC037 00/M07 A3040 RMK AO2
Loading
Personal Weather Stations






























Interactive Weather Map
Tropical Storm Tracking
New forecast layout! Learn more

10-Day Weather Forecast

Advertisements
Track Severe Weather on mobile